Hauptseite
METAR-TAF:

METAR-TAF

Flughäfen :

Flughafen Augsburg

Augsburg, Deutschland

Breite: 48-26N, Länge: 010-56E, Höhe: 461 m

Beobachtung

Neuester Wetterbericht von vor 34 Minuten, um 07:50 UTC
Wind 4 kt aus Südost
Temperatur -1°C
Luftfeuchtigkeit 93%
Luftdruck 1018 hPa
Sichtweite 10 km oder mehr
keine Wolken unter 1500 m und keine Kumulonimbus oder Gewitterwolken

METAR: EDMA 190750Z 13004KT CAVOK M01/M02 Q1018

Zeit: 09:24 (08:24 UTC)

Prognose

Neuester Wetterbericht von vor 2 Stunden und 27 Minuten, um 05:57 UTC
Gültige Prognose vom 19 um 06 UTC bis 19 um 15 UTC
Wind 3 kt aus Süd/Südost
Sichtweite: 8000 m

TAF: EDMA 190557Z 1906/1915 16003KT 8000 NSC

Wetterbeobachtungen und Prognosen von mehr als 4000 Flughäfen (METAR und TAF Bericht).

Die verfügbaren Stationen werden durch gelbe und rote Markierungen auf der Karte dargestellt.

Führen Sie die Maus auf sie, um den Namen der Station zu sehen.

Darauf klicken, um die Beobachtung von Wetterbeobachtungen und Prognosen zu sehen.

Um die Karte zu ändern : klicken Sie auf den grünen Tasten mit einem schwarzen Kreuz Zum Vergrößern, auf den grünen Button mit einem Gedankenstrich zu verkleinern, oder auf die grünen Pfeile für benachbarte Karten.


METAR-TAF: